createdAt,value
2018-11-21T00:02:06.781Z,94.70
2018-11-21T00:05:10.615Z,94.44
2018-11-21T00:08:35.820Z,94.32
2018-11-21T00:11:40.050Z,94.73
2018-11-21T00:15:02.871Z,94.44
2018-11-21T00:18:25.682Z,94.24
2018-11-21T00:21:40.905Z,93.95
2018-11-21T00:24:59.067Z,94.15
2018-11-21T00:28:15.246Z,94.46
2018-11-21T00:31:30.875Z,94.11
2018-11-21T00:34:46.782Z,93.90
2018-11-21T00:38:02.179Z,94.00
2018-11-21T00:41:17.620Z,94.00
2018-11-21T00:44:33.346Z,93.89
2018-11-21T00:47:36.917Z,93.74
2018-11-21T00:50:40.481Z,93.89
2018-11-21T00:54:03.275Z,93.79
2018-11-21T00:57:19.049Z,93.68
2018-11-21T01:00:22.596Z,93.55
2018-11-21T01:03:45.515Z,93.39
2018-11-21T01:07:08.400Z,93.19
2018-11-21T01:10:23.890Z,93.16
2018-11-21T01:13:39.718Z,93.14
2018-11-21T01:16:55.249Z,93.01
2018-11-21T01:20:10.600Z,93.36
2018-11-21T01:23:26.932Z,92.91
2018-11-21T01:26:42.295Z,93.10
2018-11-21T01:29:57.902Z,92.90
2018-11-21T01:33:13.527Z,93.31
2018-11-21T01:36:28.936Z,93.48
2018-11-21T01:39:45.005Z,93.74
2018-11-21T01:43:00.169Z,93.41
2018-11-21T01:46:03.802Z,93.42
2018-11-21T01:49:26.598Z,93.83
2018-11-21T01:52:30.133Z,93.30
2018-11-21T01:55:55.421Z,93.67
2018-11-21T01:59:18.347Z,93.38
2018-11-21T02:02:34.593Z,93.49
2018-11-21T02:05:49.816Z,92.55
2018-11-21T02:09:05.906Z,92.56
2018-11-21T02:12:10.172Z,92.77
2018-11-21T02:15:33.005Z,92.68
2018-11-21T02:18:55.783Z,92.74
2018-11-21T02:22:11.264Z,92.93
2018-11-21T02:25:27.326Z,92.81
2018-11-21T02:28:30.891Z,92.26
2018-11-21T02:31:53.743Z,92.48
2018-11-21T02:35:16.709Z,91.95
2018-11-21T02:38:20.213Z,92.33
2018-11-21T02:41:23.811Z,92.34
2018-11-21T02:44:46.601Z,91.93
2018-11-21T02:48:02.710Z,91.87
2018-11-21T02:51:19.154Z,92.61
2018-11-21T02:54:35.544Z,92.49
2018-11-21T02:57:50.172Z,92.16
2018-11-21T03:01:05.537Z,92.28
2018-11-21T03:04:21.490Z,91.93
2018-11-21T03:07:37.697Z,91.93
2018-11-21T03:10:53.289Z,91.51
2018-11-21T03:14:08.647Z,91.27
2018-11-21T03:17:24.203Z,91.39
2018-11-21T03:20:39.873Z,91.55
2018-11-21T03:23:55.936Z,91.36
2018-11-21T03:27:11.758Z,91.33
2018-11-21T03:30:15.362Z,91.36
2018-11-21T03:33:38.154Z,91.58
2018-11-21T03:37:00.947Z,91.52
2018-11-21T03:40:16.709Z,91.66
2018-11-21T03:43:32.334Z,91.31
2018-11-21T03:46:49.040Z,91.77
2018-11-21T03:50:04.527Z,91.28
2018-11-21T03:53:20.203Z,91.11
2018-11-21T03:56:36.010Z,91.24
2018-11-21T03:59:52.252Z,91.68
2018-11-21T04:06:19.046Z,90.97
2018-11-21T04:09:34.845Z,91.06
2018-11-21T04:12:50.707Z,90.75
2018-11-21T04:16:06.547Z,91.39
2018-11-21T04:19:10.404Z,90.76
2018-11-21T04:22:33.205Z,91.01
2018-11-21T04:25:48.558Z,90.78
2018-11-21T04:29:04.964Z,91.13
2018-11-21T04:32:23.627Z,90.84
2018-11-21T04:35:39.758Z,90.76
2018-11-21T04:38:55.396Z,90.38
2018-11-21T04:41:58.947Z,90.97
2018-11-21T04:45:21.751Z,90.69
2018-11-21T04:48:37.528Z,90.53
2018-11-21T04:51:53.560Z,90.51
2018-11-21T04:55:09.314Z,89.98
2018-11-21T04:58:25.229Z,90.04
2018-11-21T05:01:28.788Z,90.01
2018-11-21T05:04:51.564Z,90.44
2018-11-21T05:08:14.383Z,90.95
2018-11-21T05:11:30.319Z,91.00
2018-11-21T05:14:33.869Z,91.00
2018-11-21T05:17:37.379Z,90.85
2018-11-21T05:21:00.174Z,90.83
2018-11-21T05:24:03.733Z,90.42
2018-11-21T05:27:26.548Z,91.00
2018-11-21T05:30:42.359Z,90.43
2018-11-21T05:33:57.853Z,90.41
2018-11-21T05:37:13.788Z,90.42
2018-11-21T05:40:17.383Z,90.45
2018-11-21T05:43:20.936Z,89.78
2018-11-21T05:46:43.756Z,89.71
2018-11-21T05:49:47.284Z,89.86
2018-11-21T05:53:10.119Z,89.96
2018-11-21T05:56:13.720Z,89.84
2018-11-21T05:59:17.264Z,90.13
2018-11-21T06:02:20.808Z,89.78
2018-11-21T06:05:43.701Z,89.59
2018-11-21T06:08:59.128Z,89.19
2018-11-21T06:12:15.141Z,89.62
2018-11-21T06:15:18.637Z,89.68
2018-11-21T06:18:41.507Z,89.77
2018-11-21T06:21:45.044Z,89.31
2018-11-21T06:25:08.380Z,89.49
2018-11-21T06:28:11.884Z,89.48
2018-11-21T06:31:34.731Z,89.69
2018-11-21T06:34:57.590Z,89.94
2018-11-21T06:38:13.206Z,89.61
2018-11-21T06:41:30.740Z,89.20
2018-11-21T06:44:45.205Z,89.08
2018-11-21T06:48:01.085Z,89.14
2018-11-21T06:51:17.229Z,89.66
2018-11-21T06:54:32.618Z,89.03
2018-11-21T06:57:48.099Z,88.89
2018-11-21T07:01:04.029Z,89.52
2018-11-21T07:04:19.474Z,89.45
2018-11-21T07:07:35.396Z,89.38
2018-11-21T07:10:50.849Z,89.46
2018-11-21T07:14:07.303Z,88.79
2018-11-21T07:17:11.037Z,88.79
2018-11-21T07:20:33.841Z,88.61
2018-11-21T07:23:49.469Z,88.39
2018-11-21T07:27:05.366Z,89.31
2018-11-21T07:30:11.919Z,89.33
2018-11-21T07:33:15.476Z,89.29
2018-11-21T07:36:19.166Z,89.29
2018-11-21T07:39:23.633Z,89.39
2018-11-21T07:42:27.093Z,88.72
2018-11-21T07:45:49.025Z,89.68
2018-11-21T07:48:52.562Z,88.66
2018-11-21T07:52:15.369Z,88.04
2018-11-21T07:55:30.964Z,88.75
2018-11-21T07:58:34.499Z,88.08
2018-11-21T08:02:10.039Z,88.43
2018-11-21T08:05:18.814Z,88.75
2018-11-21T08:08:50.232Z,88.56
2018-11-21T08:12:12.782Z,88.24
2018-11-21T08:15:35.315Z,88.77
2018-11-21T08:18:56.276Z,88.42
2018-11-21T08:22:38.425Z,88.33
2018-11-21T08:26:39.550Z,88.56
2018-11-21T08:29:43.109Z,87.76
2018-11-21T08:32:46.658Z,87.27
2018-11-21T08:36:09.475Z,87.66
2018-11-21T08:39:25.435Z,87.82
2018-11-21T08:42:28.936Z,87.96
2018-11-21T08:45:32.492Z,87.56
2018-11-21T08:48:55.282Z,87.19
2018-11-21T08:52:11.270Z,86.95
2018-11-21T08:55:27.188Z,85.88
2018-11-21T08:58:31.158Z,85.75
2018-11-21T09:01:53.977Z,85.40
2018-11-21T09:05:16.867Z,86.22
2018-11-21T09:08:32.955Z,86.13
2018-11-21T09:11:48.521Z,84.66
2018-11-21T09:15:03.741Z,85.86
2018-11-21T09:18:07.246Z,85.14
2018-11-21T09:21:11.483Z,85.54
2018-11-21T09:24:34.288Z,85.01
2018-11-21T09:27:50.489Z,85.69
2018-11-21T09:31:05.822Z,84.85
2018-11-21T09:34:21.713Z,85.68
2018-11-21T09:37:25.381Z,85.26
2018-11-21T09:40:48.283Z,85.21
2018-11-21T09:44:11.431Z,85.27
2018-11-21T09:47:14.941Z,85.60
2018-11-21T09:50:23.541Z,85.52
2018-11-21T09:53:46.051Z,85.37
2018-11-21T09:57:08.852Z,85.70
2018-11-21T10:00:26.131Z,85.32
2018-11-21T10:03:41.604Z,84.24
2018-11-21T10:06:45.914Z,85.51
2018-11-21T10:10:08.760Z,85.02
2018-11-21T10:13:13.157Z,85.08
2018-11-21T10:16:16.721Z,84.95
2018-11-21T10:19:39.576Z,84.62
2018-11-21T10:22:55.641Z,84.40
2018-11-21T10:26:11.691Z,86.04
2018-11-21T10:29:15.197Z,85.08
2018-11-21T10:32:18.745Z,86.03
2018-11-21T10:35:41.585Z,85.19
2018-11-21T10:39:05.646Z,84.71
2018-11-21T10:42:21.186Z,84.44
2018-11-21T10:45:37.111Z,85.14
2018-11-21T10:48:40.677Z,84.76
2018-11-21T10:52:03.502Z,84.10
2018-11-21T10:55:07.186Z,82.23
2018-11-21T10:58:11.695Z,85.21
2018-11-21T11:01:53.563Z,84.61
2018-11-21T11:05:16.792Z,84.75
2018-11-21T11:08:58.662Z,83.98
2018-11-21T11:12:30.052Z,83.49
2018-11-21T11:15:52.757Z,85.48
2018-11-21T11:19:24.519Z,85.51
2018-11-21T11:23:03.772Z,85.25
2018-11-21T11:26:34.148Z,85.47
2018-11-21T11:30:08.746Z,85.72
2018-11-21T11:33:41.343Z,85.87
2018-11-21T11:37:23.208Z,83.92
2018-11-21T11:41:05.062Z,83.48
2018-11-21T11:44:39.347Z,83.59
2018-11-21T11:48:13.849Z,82.14
2018-11-21T11:51:48.641Z,82.73
2018-11-21T11:55:00.502Z,83.21
2018-11-21T11:58:41.687Z,83.27
2018-11-21T12:02:23.527Z,83.34
2018-11-21T12:05:46.057Z,84.89
2018-11-21T12:09:29.067Z,84.75
2018-11-21T12:13:02.973Z,84.69
2018-11-21T12:16:37.403Z,84.41
2018-11-21T12:19:59.993Z,85.29
2018-11-21T12:23:22.512Z,86.13
2018-11-21T12:26:57.161Z,85.49
2018-11-21T12:30:32.122Z,85.27
2018-11-21T12:34:06.519Z,85.95
2018-11-21T12:37:40.933Z,85.92
2018-11-21T12:41:18.509Z,85.12
2018-11-21T12:44:53.442Z,85.44
2018-11-21T12:48:28.338Z,86.40
2018-11-21T12:52:02.748Z,86.54
2018-11-21T12:58:45.560Z,86.00
2018-11-21T13:02:20.294Z,87.16
2018-11-21T13:05:55.167Z,87.61
2018-11-21T13:09:36.472Z,86.82
2018-11-21T13:13:14.091Z,87.77
2018-11-21T13:16:45.137Z,87.52
2018-11-21T13:20:18.319Z,86.84
2018-11-21T13:23:52.572Z,87.06
2018-11-21T13:27:33.207Z,86.72
2018-11-21T13:31:11.107Z,87.14
2018-11-21T13:34:46.102Z,86.72
2018-11-21T13:38:12.888Z,87.07
2018-11-21T13:41:48.085Z,87.20
2018-11-21T13:45:22.862Z,87.33
2018-11-21T13:49:00.811Z,86.57
2018-11-21T13:52:35.738Z,86.83
2018-11-21T13:55:39.354Z,86.33
2018-11-21T13:59:02.155Z,86.69
2018-11-21T14:02:18.357Z,86.09
2018-11-21T14:05:34.569Z,87.09
2018-11-21T14:08:50.498Z,86.49
2018-11-21T14:12:06.717Z,85.72
2018-11-21T14:15:10.534Z,86.74
2018-11-21T14:18:33.404Z,86.85
2018-11-21T14:21:56.238Z,86.26
2018-11-21T14:25:12.798Z,86.40
2018-11-21T14:28:16.379Z,86.63
2018-11-21T14:31:39.224Z,86.72
2018-11-21T14:34:54.774Z,86.83
2018-11-21T14:38:10.015Z,87.33
2018-11-21T14:41:24.604Z,87.09
2018-11-21T14:44:47.443Z,87.33
2018-11-21T14:48:03.239Z,87.77
2018-11-21T14:51:18.613Z,86.82
2018-11-21T14:54:34.670Z,87.09
2018-11-21T14:57:50.169Z,87.47
2018-11-21T15:01:05.660Z,86.72
2018-11-21T15:04:21.889Z,86.83
2018-11-21T15:07:37.703Z,87.45
2018-11-21T15:10:53.489Z,87.56
2018-11-21T15:14:08.999Z,87.52
2018-11-21T15:17:13.486Z,88.52
2018-11-21T15:20:36.284Z,87.81
2018-11-21T15:23:52.433Z,88.02
2018-11-21T15:27:08.612Z,88.20
2018-11-21T15:30:15.448Z,87.86
2018-11-21T15:33:38.362Z,87.92
2018-11-21T15:36:42.615Z,88.66
2018-11-21T15:40:06.746Z,88.14
2018-11-21T15:43:24.244Z,87.16
2018-11-21T15:46:45.407Z,86.89
2018-11-21T15:52:24.798Z,86.69
2018-11-21T15:55:40.723Z,86.57
2018-11-21T15:58:56.743Z,86.95
2018-11-21T16:02:12.425Z,87.67
2018-11-21T16:05:28.318Z,87.06
2018-11-21T16:08:44.451Z,86.97
2018-11-21T16:12:00.223Z,87.36
2018-11-21T16:15:05.854Z,87.03
2018-11-21T16:18:10.801Z,87.01
2018-11-21T16:21:34.529Z,87.79
2018-11-21T16:24:58.270Z,87.98
2018-11-21T16:28:14.550Z,88.31
2018-11-21T16:31:30.234Z,88.04
2018-11-21T16:34:46.300Z,88.31
2018-11-21T16:38:05.050Z,88.29
2018-11-21T16:41:21.753Z,88.43
2018-11-21T16:44:37.735Z,88.55
2018-11-21T16:47:42.750Z,88.01
2018-11-21T16:51:06.585Z,88.18
2018-11-21T16:54:31.131Z,87.61
2018-11-21T16:57:55.793Z,87.48
2018-11-21T17:01:11.489Z,87.28
2018-11-21T17:04:16.563Z,87.07
2018-11-21T17:07:40.679Z,86.92
2018-11-21T17:11:04.410Z,87.53
2018-11-21T17:14:28.164Z,87.56
2018-11-21T17:17:44.565Z,86.88
2018-11-21T17:21:00.950Z,87.53
2018-11-21T17:24:17.216Z,87.65
2018-11-21T17:27:33.748Z,87.90
2018-11-21T17:30:39.075Z,87.20
2018-11-21T17:33:45.611Z,88.04
2018-11-21T17:37:08.169Z,87.40
2018-11-21T17:40:50.514Z,87.34
2018-11-21T17:43:55.596Z,87.77
2018-11-21T17:47:19.312Z,87.58
2018-11-21T17:50:24.978Z,87.32
2018-11-21T17:53:29.889Z,87.63
2018-11-21T17:56:54.603Z,87.16
2018-11-21T17:59:58.705Z,87.21
2018-11-21T18:03:23.322Z,86.78
2018-11-21T18:06:38.856Z,86.59
2018-11-21T18:09:44.395Z,87.40
2018-11-21T18:13:09.179Z,87.00
2018-11-21T18:16:14.367Z,87.20
2018-11-21T18:19:19.274Z,87.39
2018-11-21T18:22:43.805Z,87.25
2018-11-21T18:26:00.334Z,87.16
2018-11-21T18:29:16.547Z,87.72
2018-11-21T18:32:21.469Z,87.71
2018-11-21T18:35:26.544Z,88.46
2018-11-21T18:38:50.299Z,87.69
2018-11-21T18:42:14.074Z,87.53
2018-11-21T18:45:32.006Z,87.88
2018-11-21T18:48:48.766Z,88.08
2018-11-21T18:51:54.172Z,88.22
2018-11-21T18:55:37.964Z,88.85
2018-11-21T18:59:03.517Z,88.10
2018-11-21T19:02:08.551Z,88.32
2018-11-21T19:05:32.307Z,87.62
2018-11-21T19:08:56.039Z,87.59
2018-11-21T19:12:12.159Z,87.86
2018-11-21T19:15:17.606Z,88.47
2018-11-21T19:18:41.364Z,88.45
2018-11-21T19:21:46.336Z,87.65
2018-11-21T19:24:51.280Z,87.18
2018-11-21T19:28:15.041Z,87.83
2018-11-21T19:31:20.118Z,87.65
2018-11-21T19:34:43.856Z,87.67
2018-11-21T19:38:07.544Z,87.60
2018-11-21T19:41:23.784Z,87.49
2018-11-21T19:44:28.791Z,87.05
2018-11-21T19:47:33.736Z,87.60
2018-11-21T19:50:57.475Z,87.56
2018-11-21T19:54:21.215Z,87.64
2018-11-21T19:57:37.129Z,87.56
2018-11-21T20:00:53.008Z,87.77
2018-11-21T20:04:08.992Z,87.02
2018-11-21T20:07:14.725Z,87.30
2018-11-21T20:10:38.468Z,87.61
2018-11-21T20:14:02.260Z,88.20
2018-11-21T20:17:18.085Z,88.30
2018-11-21T20:20:23.560Z,87.88
2018-11-21T20:23:28.875Z,88.40
2018-11-21T20:26:33.830Z,88.18
2018-11-21T20:29:39.160Z,88.20
2018-11-21T20:32:45.096Z,88.23
2018-11-21T20:36:08.862Z,88.00
2018-11-21T20:39:32.600Z,88.42
2018-11-21T20:42:37.580Z,88.49
2018-11-21T20:45:42.576Z,88.75
2018-11-21T20:49:11.225Z,88.65
2018-11-21T20:52:30.501Z,88.85
2018-11-21T20:55:46.558Z,88.20
2018-11-21T20:59:03.820Z,88.15
2018-11-21T21:02:08.865Z,88.33
2018-11-21T21:05:32.644Z,88.48
2018-11-21T21:08:56.330Z,88.49
2018-11-21T21:12:12.362Z,88.82
2018-11-21T21:15:29.145Z,88.55
2018-11-21T21:18:44.811Z,88.09
2018-11-21T21:22:01.415Z,88.54
2018-11-21T21:25:19.316Z,88.53
2018-11-21T21:28:24.296Z,87.98
2018-11-21T21:31:29.230Z,88.54
2018-11-21T21:34:53.001Z,88.77
2018-11-21T21:38:16.695Z,89.01
2018-11-21T21:41:32.756Z,89.12
2018-11-21T21:44:37.686Z,88.84
2018-11-21T21:48:01.448Z,88.25
2018-11-21T21:51:06.726Z,88.74
2018-11-21T21:54:30.495Z,88.88
2018-11-21T21:57:46.865Z,87.91
2018-11-21T22:01:02.761Z,88.14
2018-11-21T22:04:18.404Z,88.36
2018-11-21T22:07:23.440Z,89.32
2018-11-21T22:10:47.547Z,88.46
2018-11-21T22:14:11.277Z,88.40
2018-11-21T22:17:16.219Z,88.85
2018-11-21T22:20:39.946Z,89.67
2018-11-21T22:23:45.196Z,89.86
2018-11-21T22:27:08.937Z,89.98
2018-11-21T22:30:32.665Z,88.64
2018-11-21T22:33:37.641Z,89.15
2018-11-21T22:36:42.565Z,89.64
2018-11-21T22:40:07.259Z,89.38
2018-11-21T22:43:31.026Z,89.49
2018-11-21T22:46:47.255Z,89.43
2018-11-21T22:50:03.646Z,89.87
2018-11-21T22:53:08.622Z,90.09
2018-11-21T22:56:32.345Z,89.46
2018-11-21T22:59:37.414Z,88.83
2018-11-21T23:02:42.651Z,89.23
2018-11-21T23:05:47.608Z,89.81
2018-11-21T23:09:12.506Z,89.48
2018-11-21T23:12:28.295Z,89.72
2018-11-21T23:15:33.259Z,89.31
2018-11-21T23:18:38.264Z,89.58
2018-11-21T23:22:02.092Z,89.56
2018-11-21T23:25:07.800Z,89.52
2018-11-21T23:28:31.545Z,89.49
2018-11-21T23:31:47.798Z,90.31
2018-11-21T23:34:52.700Z,90.55
2018-11-21T23:37:57.669Z,91.37
2018-11-21T23:41:21.389Z,91.36
2018-11-21T23:44:26.330Z,91.26
2018-11-21T23:47:50.069Z,91.10
2018-11-21T23:50:55.394Z,91.70
2018-11-21T23:54:00.360Z,92.19
2018-11-21T23:57:24.931Z,91.95
